Time;durP1;ratioP1;P1;durP2;ratioP2;P2;SDS_P1;SDS_P2;PMS_P1;PMS_P2;Temp;Humidity;BMP_temperature;BMP_pressure;BME280_temperature;BME280_humidity;BME280_pressure;Samples;Min_cycle;Max_cycle;Signal;HPM_P1;HPM_P2
2024/01/26 00:01:56;;;;;;;3.93;2.53;;;;;;;5.03;76.33;63454.91;5072956;28;20224;-54
2024/01/26 00:04:22;;;;;;;5.67;2.50;;;;;;;5.07;76.70;63459.25;5072924;28;20662;-57
2024/01/26 00:06:48;;;;;;;5.77;2.13;;;;;;;5.10;75.83;63461.97;5072922;28;20597;-56
2024/01/26 00:09:15;;;;;;;7.40;2.37;;;;;;;5.09;76.35;63458.38;5073293;28;20253;-55
2024/01/26 00:11:42;;;;;;;3.30;1.90;;;;;;;5.15;75.95;63464.38;5054772;28;20203;-56
2024/01/26 00:14:08;;;;;;;8.33;2.53;;;;;;;5.13;75.56;63465.78;5073273;28;20223;-56
2024/01/26 00:16:35;;;;;;;3.90;1.90;;;;;;;5.12;76.12;63461.66;5072385;28;20195;-55
2024/01/26 00:19:01;;;;;;;4.30;2.57;;;;;;;5.09;76.49;63456.44;5072822;28;20275;-55
2024/01/26 00:21:27;;;;;;;9.70;2.77;;;;;;;5.11;75.69;63463.59;5072370;28;20700;-55
2024/01/26 00:23:52;;;;;;;7.13;2.40;;;;;;;5.10;76.48;63460.03;5072456;28;20212;-54
2024/01/26 00:26:18;;;;;;;8.87;2.90;;;;;;;5.10;76.70;63457.53;5054317;28;20195;-54
2024/01/26 00:28:43;;;;;;;3.53;1.83;;;;;;;5.07;76.41;63459.25;5072344;28;20300;-54
2024/01/26 00:31:15;;;;;;;7.83;2.53;;;;;;;5.04;76.29;63450.44;5072310;28;20242;-54
2024/01/26 00:33:41;;;;;;;4.87;2.10;;;;;;;5.05;76.56;63454.56;5072698;28;20277;-54
2024/01/26 00:36:06;;;;;;;7.80;2.40;;;;;;;4.98;76.77;63449.47;5072619;28;20192;-59
2024/01/26 00:38:32;;;;;;;4.60;2.00;;;;;;;5.05;76.46;63457.06;5072503;28;20212;-56
2024/01/26 00:40:58;;;;;;;9.57;1.97;;;;;;;5.07;75.85;63456.19;5072212;28;20220;-55
2024/01/26 00:43:23;;;;;;;9.07;2.73;;;;;;;5.00;76.76;63448.59;5072136;28;20208;-53
2024/01/26 00:45:49;;;;;;;6.37;2.60;;;;;;;5.04;75.94;63456.00;5071943;28;20204;-54
2024/01/26 00:48:15;;;;;;;6.53;2.23;;;;;;;5.00;75.48;63448.59;5071971;28;20212;-54
2024/01/26 00:50:40;;;;;;;11.60;2.50;;;;;;;4.93;75.86;63443.47;5072219;28;20202;-56
2024/01/26 00:53:06;;;;;;;7.40;2.43;;;;;;;4.97;75.84;63445.31;5053987;28;20213;-55
2024/01/26 00:55:31;;;;;;;8.63;2.00;;;;;;;5.03;75.73;63454.91;5054204;28;20244;-56
2024/01/26 00:57:57;;;;;;;7.33;2.33;;;;;;;5.04;75.48;63452.94;5071801;28;20712;-55
2024/01/26 01:00:26;;;;;;;6.80;2.50;;;;;;;4.97;74.86;63445.88;5071406;28;20220;-55
2024/01/26 01:02:56;;;;;;;5.87;2.00;;;;;;;4.95;74.41;63443.69;5071676;28;20216;-55
2024/01/26 01:05:21;;;;;;;4.10;1.80;;;;;;;4.92;74.82;63439.88;5071902;28;20332;-54
2024/01/26 01:07:47;;;;;;;5.97;1.83;;;;;;;4.83;74.85;63433.13;5071681;28;20292;-52
2024/01/26 01:10:14;;;;;;;5.90;2.10;;;;;;;4.89;73.95;63439.66;5053738;28;20201;-53
2024/01/26 01:12:44;;;;;;;7.57;2.23;;;;;;;4.85;74.21;63432.81;5053559;28;20211;-53
2024/01/26 01:15:11;;;;;;;5.27;1.60;;;;;;;4.81;74.12;63428.47;5071769;28;20196;-53
2024/01/26 01:17:41;;;;;;;6.27;2.23;;;;;;;4.84;74.09;63431.75;5071438;28;20204;-57
2024/01/26 01:20:10;;;;;;;5.87;1.73;;;;;;;4.79;73.91;63423.78;5053458;28;20196;-53
2024/01/26 01:22:37;;;;;;;7.50;1.90;;;;;;;4.74;74.17;63418.34;5071497;28;20212;-53
2024/01/26 01:25:04;;;;;;;4.53;2.27;;;;;;;4.69;74.61;63420.41;5071695;28;20199;-55
2024/01/26 01:27:31;;;;;;;2.57;1.40;;;;;;;4.69;74.87;63412.91;5053186;28;20233;-57
2024/01/26 01:29:58;;;;;;;8.00;1.60;;;;;;;4.59;75.49;63407.03;5071596;28;20219;-54
2024/01/26 01:32:23;;;;;;;5.07;1.60;;;;;;;4.62;75.22;63407.81;5053484;28;20305;-54
2024/01/26 01:34:49;;;;;;;4.97;1.60;;;;;;;4.71;74.56;63415.09;5071350;28;20189;-55
2024/01/26 01:37:14;;;;;;;4.30;1.50;;;;;;;4.65;75.30;63410.50;5071217;28;20209;-54
2024/01/26 01:39:40;;;;;;;7.07;1.83;;;;;;;4.56;75.68;63401.28;5053483;28;20193;-56
2024/01/26 01:42:13;;;;;;;6.23;2.07;;;;;;;4.55;75.67;63402.66;5053085;28;20220;-56
2024/01/26 01:44:45;;;;;;;6.03;1.97;;;;;;;4.55;75.88;63397.13;5071610;28;20626;-53
2024/01/26 01:47:13;;;;;;;10.00;2.17;;;;;;;4.48;76.52;63390.09;5070969;28;20275;-53
2024/01/26 01:49:39;;;;;;;4.63;1.97;;;;;;;4.45;77.00;63389.31;5071242;28;20676;-54
2024/01/26 01:52:08;;;;;;;3.77;1.40;;;;;;;4.47;77.17;63393.41;5070977;28;20206;-53
2024/01/26 01:54:33;;;;;;;6.90;1.53;;;;;;;4.46;77.37;63390.41;5071197;28;20200;-54
2024/01/26 01:57:02;;;;;;;8.70;1.67;;;;;;;4.43;77.79;63386.56;5070927;28;20212;-54
2024/01/26 01:59:28;;;;;;;4.13;1.57;;;;;;;4.43;78.23;63387.13;5071009;28;20192;-54
2024/01/26 02:01:54;;;;;;;4.87;1.70;;;;;;;4.36;78.36;63382.03;5070629;28;20270;-55
2024/01/26 02:04:20;;;;;;;4.83;1.50;;;;;;;4.24;78.26;63366.47;5070733;28;20285;-51
2024/01/26 02:06:54;;;;;;;7.20;1.90;;;;;;;4.40;78.66;63386.38;5059237;23;20218;-53
2024/01/26 02:09:20;;;;;;;5.27;1.40;;;;;;;4.35;78.53;63378.44;5049458;28;20211;-53
2024/01/26 02:11:46;;;;;;;2.63;1.57;;;;;;;4.37;78.95;63383.09;5049466;28;20757;-53
2024/01/26 02:14:12;;;;;;;3.33;1.60;;;;;;;4.37;78.99;63380.59;5050897;28;20270;-53
2024/01/26 02:16:37;;;;;;;3.47;1.67;;;;;;;4.42;78.70;63388.53;5050506;28;20336;-53
2024/01/26 02:19:03;;;;;;;10.07;1.77;;;;;;;4.39;79.07;63382.22;5050737;28;20192;-53
2024/01/26 02:21:28;;;;;;;2.60;1.30;;;;;;;4.37;78.53;63380.59;5050725;28;20232;-53
2024/01/26 02:23:54;;;;;;;5.57;1.50;;;;;;;4.45;77.78;63386.25;5050687;28;20203;-54
2024/01/26 02:26:19;;;;;;;4.90;2.13;;;;;;;4.41;77.87;63384.41;5050900;28;20183;-55
2024/01/26 02:28:45;;;;;;;5.07;2.10;;;;;;;4.46;76.95;63390.41;5050596;28;20210;-55
2024/01/26 02:31:10;;;;;;;6.37;2.13;;;;;;;4.51;76.57;63393.34;5050450;28;20199;-55
2024/01/26 02:33:36;;;;;;;5.60;1.40;;;;;;;4.55;75.65;63399.63;5050525;28;20692;-54
2024/01/26 02:36:01;;;;;;;7.00;1.60;;;;;;;4.52;75.46;63396.38;5050350;28;20236;-54
2024/01/26 02:38:27;;;;;;;7.33;1.80;;;;;;;4.57;74.63;63404.84;5050499;28;20263;-54
2024/01/26 02:40:53;;;;;;;8.13;1.33;;;;;;;4.54;75.24;63396.59;5050288;28;20625;-54
2024/01/26 02:43:26;;;;;;;14.67;3.23;;;;;;;4.52;74.82;63396.38;5050325;28;20286;-54
2024/01/26 02:45:52;;;;;;;5.57;1.40;;;;;;;4.56;75.08;63403.78;5050566;28;20243;-52
2024/01/26 02:48:23;;;;;;;4.70;1.77;;;;;;;4.51;75.46;63397.78;5050411;28;20205;-55
2024/01/26 02:50:48;;;;;;;5.93;1.47;;;;;;;4.54;75.40;63396.59;5050368;28;20274;-56
2024/01/26 02:53:14;;;;;;;3.17;1.70;;;;;;;4.57;74.79;63404.28;5050430;28;20730;-53
2024/01/26 02:55:39;;;;;;;4.33;1.87;;;;;;;4.58;74.39;63402.91;5050235;28;20533;-53
2024/01/26 02:58:05;;;;;;;4.13;1.30;;;;;;;4.57;74.78;63404.28;5050389;28;20211;-55
2024/01/26 03:00:30;;;;;;;3.40;1.80;;;;;;;4.60;74.60;63407.56;5050074;28;20575;-55
2024/01/26 03:02:56;;;;;;;5.43;1.53;;;;;;;4.58;74.23;63405.41;5050300;28;20224;-55
2024/01/26 03:05:22;;;;;;;5.53;1.30;;;;;;;4.59;73.81;63406.47;5050125;28;20670;-55
2024/01/26 03:07:47;;;;;;;3.30;1.80;;;;;;;4.64;73.93;63411.91;5048783;28;20219;-55
2024/01/26 03:10:13;;;;;;;5.90;1.57;;;;;;;4.63;74.24;63408.88;5050142;28;20245;-53
2024/01/26 03:12:39;;;;;;;7.60;2.07;;;;;;;4.74;73.39;63420.31;5050323;28;20687;-53
2024/01/26 03:15:06;;;;;;;11.77;2.57;;;;;;;4.72;73.95;63418.69;5048938;28;20651;-53
2024/01/26 03:17:31;;;;;;;8.93;1.63;;;;;;;4.65;74.56;63413.56;5050104;28;20218;-53
2024/01/26 03:19:58;;;;;;;14.33;3.37;;;;;;;4.63;74.86;63408.88;5049990;28;20694;-53
2024/01/26 03:22:24;;;;;;;4.60;1.67;;;;;;;4.66;74.70;63412.16;5050093;28;20222;-52
2024/01/26 03:24:49;;;;;;;5.40;1.63;;;;;;;4.65;74.71;63413.00;5052077;28;20207;-54
2024/01/26 03:27:15;;;;;;;10.37;2.03;;;;;;;4.61;75.34;63409.19;5053182;28;20705;-57
2024/01/26 03:29:41;;;;;;;8.50;2.20;;;;;;;4.62;75.02;63404.75;5053214;28;20284;-55
2024/01/26 03:32:06;;;;;;;5.83;1.87;;;;;;;4.63;75.37;63411.38;5053422;28;20295;-55
2024/01/26 03:34:32;;;;;;;5.13;1.87;;;;;;;4.55;75.93;63400.19;5053615;28;20235;-55
2024/01/26 03:36:57;;;;;;;4.63;1.03;;;;;;;4.52;76.13;63394.44;5053258;28;20844;-55
2024/01/26 03:39:23;;;;;;;8.97;2.10;;;;;;;4.50;76.22;63396.69;5053255;28;20194;-54
2024/01/26 03:41:49;;;;;;;3.97;1.63;;;;;;;4.64;76.06;63409.97;5051751;28;20217;-54
2024/01/26 03:44:15;;;;;;;4.80;1.70;;;;;;;4.60;76.01;63408.13;5051770;28;20203;-53
2024/01/26 03:46:43;;;;;;;4.43;2.00;;;;;;;4.63;76.31;63408.34;5051926;28;20197;-53
2024/01/26 03:49:09;;;;;;;7.67;1.60;;;;;;;4.57;76.37;63401.81;5053212;28;20196;-53
2024/01/26 03:51:38;;;;;;;7.87;2.33;;;;;;;4.62;76.57;63407.25;5052988;28;20282;-55
2024/01/26 03:54:04;;;;;;;5.30;1.23;;;;;;;4.58;76.26;63403.44;5053581;28;20185;-53
2024/01/26 03:56:30;;;;;;;3.37;1.73;;;;;;;4.58;76.39;63403.44;5052931;28;20190;-53
2024/01/26 03:58:55;;;;;;;6.30;1.83;;;;;;;4.63;76.13;63410.81;5052682;28;20330;-54
2024/01/26 04:01:21;;;;;;;4.87;1.33;;;;;;;4.55;76.62;63399.63;5052803;28;20339;-53
2024/01/26 04:03:47;;;;;;;4.97;1.80;;;;;;;4.50;76.45;63394.19;5052501;28;20216;-53
2024/01/26 04:06:13;;;;;;;3.13;1.73;;;;;;;4.63;75.56;63406.38;5052712;28;20213;-53
2024/01/26 04:08:38;;;;;;;5.53;1.87;;;;;;;4.53;75.71;63397.44;5052591;28;20274;-55
2024/01/26 04:11:05;;;;;;;6.00;2.60;;;;;;;4.64;74.97;63407.47;5052561;28;20198;-52
2024/01/26 04:13:31;;;;;;;6.20;2.00;;;;;;;4.61;74.96;63406.69;5052673;28;20245;-54
2024/01/26 04:15:56;;;;;;;8.17;1.63;;;;;;;4.65;74.33;63413.56;5052655;28;20189;-53
2024/01/26 04:18:22;;;;;;;6.10;2.50;;;;;;;4.63;74.42;63411.38;5052579;28;20218;-55
2024/01/26 04:20:48;;;;;;;6.77;2.23;;;;;;;4.69;73.61;63415.41;5052434;28;20185;-53
2024/01/26 04:23:15;;;;;;;2.83;1.57;;;;;;;4.69;74.06;63412.91;5052502;28;20306;-55
2024/01/26 04:25:41;;;;;;;3.80;1.60;;;;;;;4.69;73.91;63415.41;5052385;28;20188;-55
2024/01/26 04:28:07;;;;;;;6.83;2.03;;;;;;;4.68;73.94;63416.81;5052279;28;20262;-55
2024/01/26 04:30:34;;;;;;;4.77;2.07;;;;;;;4.71;73.75;63417.59;5051126;28;20736;-55
2024/01/26 04:33:00;;;;;;;3.53;1.73;;;;;;;4.71;73.60;63420.06;5051930;28;20589;-54
2024/01/26 04:35:25;;;;;;;6.77;2.00;;;;;;;4.81;72.79;63427.91;5051532;28;20175;-53
2024/01/26 04:37:52;;;;;;;6.67;1.73;;;;;;;4.75;73.06;63424.44;5052520;28;20205;-53
2024/01/26 04:40:18;;;;;;;6.10;1.60;;;;;;;4.74;73.19;63420.31;5034440;28;20680;-53
2024/01/26 04:42:44;;;;;;;3.20;1.67;;;;;;;4.40;72.63;63381.38;5052215;28;20300;-55
2024/01/26 04:45:09;;;;;;;3.33;1.57;;;;;;;4.71;72.91;63417.59;5052295;28;20273;-56
2024/01/26 04:47:35;;;;;;;3.67;1.60;;;;;;;4.74;72.76;63422.81;5052041;28;20240;-56
2024/01/26 04:50:01;;;;;;;3.40;1.80;;;;;;;4.76;72.19;63425.53;5052297;28;20189;-52
2024/01/26 04:52:26;;;;;;;5.63;1.80;;;;;;;4.71;72.48;63419.53;5052425;28;20220;-54
2024/01/26 04:54:52;;;;;;;7.27;1.90;;;;;;;4.77;72.24;63426.59;5052084;28;20584;-53
2024/01/26 04:57:18;;;;;;;4.07;1.50;;;;;;;4.71;72.70;63422.03;5051783;28;20226;-56
2024/01/26 04:59:44;;;;;;;4.43;1.40;;;;;;;4.68;72.78;63411.84;5051922;28;20196;-56
2024/01/26 05:02:09;;;;;;;9.03;1.90;;;;;;;4.70;72.98;63415.97;5052212;28;20227;-54
2024/01/26 05:04:35;;;;;;;7.40;1.80;;;;;;;4.68;72.80;63414.31;5050876;28;20186;-53
2024/01/26 05:07:00;;;;;;;6.07;2.17;;;;;;;4.65;73.01;63413.00;5051867;28;20215;-54
2024/01/26 05:09:26;;;;;;;6.73;1.80;;;;;;;4.64;72.94;63412.47;5051762;28;20216;-54
2024/01/26 05:11:52;;;;;;;8.03;2.10;;;;;;;4.55;73.24;63399.63;5051831;28;20746;-55
2024/01/26 05:14:19;;;;;;;6.30;1.97;;;;;;;4.48;73.91;63392.03;5051777;28;20245;-55
2024/01/26 05:16:44;;;;;;;5.17;1.70;;;;;;;4.55;73.90;63402.66;5050497;28;20190;-54
2024/01/26 05:19:09;;;;;;;5.90;1.87;;;;;;;4.47;74.67;63391.47;5051731;28;20208;-53
2024/01/26 05:21:35;;;;;;;4.03;1.47;;;;;;;4.44;75.10;63390.16;5050147;28;20663;-53
2024/01/26 05:24:01;;;;;;;8.47;1.83;;;;;;;4.38;75.61;63384.19;5050313;28;20222;-55
2024/01/26 05:26:26;;;;;;;7.53;2.20;;;;;;;4.35;76.11;63375.94;5051648;28;20199;-57
2024/01/26 05:28:52;;;;;;;4.53;1.80;;;;;;;4.37;76.53;63382.53;5049939;28;20780;-56
2024/01/26 05:31:17;;;;;;;2.63;1.53;;;;;;;4.38;76.11;63383.66;5051464;28;20289;-55
2024/01/26 05:33:43;;;;;;;4.93;1.73;;;;;;;4.38;75.31;63381.16;5051342;28;20735;-55
2024/01/26 05:36:09;;;;;;;3.97;1.90;;;;;;;4.40;75.54;63383.31;5051431;28;20547;-55
2024/01/26 05:38:34;;;;;;;4.23;1.77;;;;;;;4.36;75.79;63378.97;5051218;28;20341;-56
2024/01/26 05:40:59;;;;;;;3.20;1.70;;;;;;;4.42;74.66;63385.50;5051295;28;20296;-55
2024/01/26 05:43:25;;;;;;;5.87;2.07;;;;;;;4.34;74.88;63374.84;5051348;28;20238;-55
2024/01/26 05:45:50;;;;;;;3.60;1.60;;;;;;;4.30;74.85;63373.00;5051285;28;20184;-55
2024/01/26 05:48:16;;;;;;;4.83;1.37;;;;;;;4.26;74.94;63368.66;5071620;22;20220;-54
2024/01/26 05:50:42;;;;;;;6.97;1.90;;;;;;;4.36;73.96;63379.53;5071157;28;20187;-54
2024/01/26 05:53:07;;;;;;;4.97;2.03;;;;;;;4.32;74.11;63375.19;5071362;28;20259;-52
2024/01/26 05:55:33;;;;;;;4.10;1.50;;;;;;;4.34;74.29;63374.84;5071332;28;20690;-54
2024/01/26 05:57:58;;;;;;;10.87;1.47;;;;;;;4.36;74.34;63377.03;5071326;28;20627;-54
2024/01/26 06:00:24;;;;;;;6.97;1.90;;;;;;;4.24;74.30;63367.00;5053014;28;20191;-55
2024/01/26 06:02:49;;;;;;;3.60;1.40;;;;;;;4.33;74.04;63375.69;5071182;28;20214;-55
2024/01/26 06:05:15;;;;;;;5.27;1.90;;;;;;;4.27;74.47;63372.22;5070912;28;20643;-56
2024/01/26 06:07:41;;;;;;;7.97;2.03;;;;;;;4.31;74.38;63374.06;5071279;28;20211;-55
2024/01/26 06:10:07;;;;;;;6.87;1.93;;;;;;;4.22;75.10;63364.81;5071162;28;20184;-59
2024/01/26 06:12:32;;;;;;;8.70;2.23;;;;;;;4.24;75.27;63369.50;5071001;28;20644;-56
2024/01/26 06:14:58;;;;;;;3.83;1.80;;;;;;;4.30;75.36;63373.00;5071062;28;20183;-57
2024/01/26 06:17:23;;;;;;;6.07;2.10;;;;;;;4.26;75.21;63366.16;5071084;28;20269;-53
2024/01/26 06:19:49;;;;;;;3.27;2.03;;;;;;;4.19;75.18;63361.56;5070667;28;20181;-53
2024/01/26 06:22:14;;;;;;;6.27;1.80;;;;;;;4.25;74.87;63370.59;5070699;28;20306;-55
2024/01/26 06:24:40;;;;;;;6.93;1.80;;;;;;;4.30;74.71;63374.94;5052614;28;20185;-54
2024/01/26 06:27:06;;;;;;;2.60;1.53;;;;;;;4.28;74.53;63370.28;5052706;28;20305;-53
2024/01/26 06:29:32;;;;;;;5.27;1.90;;;;;;;4.26;74.68;63368.66;5070523;28;20678;-54
2024/01/26 06:31:59;;;;;;;4.63;1.83;;;;;;;4.24;75.63;63363.97;5069688;28;20209;-55
2024/01/26 06:34:25;;;;;;;4.93;1.80;;;;;;;4.18;75.30;63360.47;5050690;28;20246;-55
2024/01/26 06:36:51;;;;;;;7.10;1.63;;;;;;;4.32;74.58;63374.63;5070339;28;20230;-55
2024/01/26 06:39:18;;;;;;;4.57;1.77;;;;;;;4.33;74.24;63373.75;5070293;28;20186;-55
2024/01/26 06:41:43;;;;;;;3.80;2.00;;;;;;;4.34;74.42;63374.31;5052071;28;20303;-58
2024/01/26 06:44:11;;;;;;;4.77;1.93;;;;;;;4.30;74.47;63372.44;5052502;28;20222;-55
2024/01/26 06:46:37;;;;;;;5.83;2.20;;;;;;;4.31;75.02;63376.56;5070431;28;20187;-55
2024/01/26 06:49:02;;;;;;;4.90;1.80;;;;;;;4.38;74.05;63381.16;5070673;28;20636;-54
2024/01/26 06:51:28;;;;;;;5.53;2.17;;;;;;;4.45;74.21;63386.81;5070480;28;20183;-53
2024/01/26 06:53:56;;;;;;;6.67;2.10;;;;;;;4.39;73.95;63379.72;5070262;28;20240;-53
2024/01/26 06:56:22;;;;;;;11.13;2.93;;;;;;;4.45;73.82;63389.31;5070176;28;20185;-55
2024/01/26 06:58:48;;;;;;;5.70;1.73;;;;;;;4.46;73.60;63392.91;5071960;28;20223;-55
2024/01/26 07:01:14;;;;;;;10.03;2.47;;;;;;;4.49;72.94;63393.66;5073984;28;20238;-54
2024/01/26 07:03:40;;;;;;;10.57;1.90;;;;;;;4.53;72.53;63398.00;5073462;28;20555;-53
2024/01/26 07:06:05;;;;;;;4.67;1.87;;;;;;;4.57;72.80;63401.81;5073716;28;20706;-54
2024/01/26 07:08:31;;;;;;;6.33;2.10;;;;;;;4.60;72.30;63408.13;5073787;28;20268;-54
2024/01/26 07:10:56;;;;;;;7.03;2.57;;;;;;;4.67;72.17;63413.22;5073691;28;20189;-55
2024/01/26 07:13:22;;;;;;;12.30;2.00;;;;;;;4.76;70.80;63420.53;5074061;28;20592;-55
2024/01/26 07:15:47;;;;;;;6.07;1.63;;;;;;;4.70;70.75;63415.97;5073461;28;20194;-56
2024/01/26 07:18:13;;;;;;;11.87;2.10;;;;;;;4.72;70.71;63418.69;5073577;28;20299;-55
2024/01/26 07:20:40;;;;;;;4.53;1.60;;;;;;;4.79;70.12;63428.78;5073665;28;20590;-53
2024/01/26 07:23:05;;;;;;;6.40;2.00;;;;;;;4.84;69.64;63431.75;5073617;28;20243;-53
2024/01/26 07:25:31;;;;;;;5.53;2.20;;;;;;;4.83;68.95;63430.63;5073500;28;20284;-54
2024/01/26 07:27:57;;;;;;;6.57;1.73;;;;;;;4.64;69.94;63409.97;5073350;28;20209;-55
2024/01/26 07:30:23;;;;;;;3.50;1.90;;;;;;;4.79;69.50;63428.78;5073341;28;20663;-55
2024/01/26 07:32:49;;;;;;;4.40;1.70;;;;;;;4.85;69.47;63435.31;5073303;28;20250;-55
2024/01/26 07:35:14;;;;;;;5.57;1.83;;;;;;;4.90;69.16;63438.25;5073446;28;20630;-53
2024/01/26 07:37:40;;;;;;;3.73;1.60;;;;;;;4.99;68.36;63445.56;5055173;28;20215;-54
2024/01/26 07:40:08;;;;;;;8.73;1.73;;;;;;;4.90;68.38;63442.72;5055185;28;20575;-54
2024/01/26 07:42:34;;;;;;;4.93;1.93;;;;;;;4.93;68.31;63439.03;5072953;28;20647;-53
2024/01/26 07:45:00;;;;;;;3.37;2.20;;;;;;;4.94;67.85;63442.63;5055523;28;20192;-55
2024/01/26 07:47:26;;;;;;;6.37;2.00;;;;;;;5.20;67.07;63467.31;5073093;28;20224;-54
2024/01/26 07:49:51;;;;;;;3.20;1.57;;;;;;;5.27;66.82;63480.50;5072980;28;20198;-54
2024/01/26 07:52:17;;;;;;;5.10;1.73;;;;;;;5.16;66.75;63465.47;5073330;28;20295;-56
2024/01/26 07:54:43;;;;;;;2.40;1.30;;;;;;;5.09;66.17;63461.44;5055072;28;20207;-54
2024/01/26 07:57:08;;;;;;;5.10;1.40;;;;;;;5.07;66.84;63456.75;5072927;28;20225;-55
2024/01/26 07:59:34;;;;;;;6.43;1.90;;;;;;;5.42;66.86;63496.25;5073051;28;20212;-58
2024/01/26 08:01:59;;;;;;;5.60;2.40;;;;;;;5.26;66.13;63478.84;5055000;28;20239;-54
2024/01/26 08:04:25;;;;;;;3.20;1.63;;;;;;;5.41;65.25;63493.22;5072790;28;20195;-55
2024/01/26 08:06:50;;;;;;;2.60;1.30;;;;;;;5.28;65.73;63476.56;5072771;28;20215;-55
2024/01/26 08:09:17;;;;;;;2.27;1.57;;;;;;;5.43;65.55;63497.34;5072119;28;20650;-53
2024/01/26 08:11:43;;;;;;;4.77;1.90;;;;;;;5.65;64.13;63514.38;5053857;28;20272;-54
2024/01/26 08:14:08;;;;;;;3.67;1.50;;;;;;;5.65;63.88;63518.81;5072811;28;20286;-55
2024/01/26 08:16:35;;;;;;;4.27;1.87;;;;;;;5.64;63.82;63520.22;5054726;28;20212;-56
2024/01/26 08:19:01;;;;;;;4.17;1.77;;;;;;;5.39;65.05;63493.00;5072817;28;20649;-56
2024/01/26 08:21:27;;;;;;;5.93;1.90;;;;;;;5.48;64.52;63500.28;5072434;28;20310;-57
2024/01/26 08:23:52;;;;;;;10.63;1.97;;;;;;;5.40;65.70;63489.09;5054352;28;20244;-57
2024/01/26 08:26:18;;;;;;;6.30;2.30;;;;;;;5.91;64.33;63547.16;5072519;28;20744;-57
2024/01/26 08:28:45;;;;;;;3.33;1.47;;;;;;;5.99;63.89;63555.88;5072318;28;20720;-56
2024/01/26 08:31:10;;;;;;;6.23;1.70;;;;;;;7.97;83.70;63770.69;5072363;28;20615;-53
2024/01/26 08:33:36;;;;;;;5.83;2.23;;;;;;;7.41;66.13;63712.09;5071898;28;20226;-54
2024/01/26 08:36:02;;;;;;;5.70;1.90;;;;;;;7.75;67.41;63749.19;5072266;28;20185;-54
2024/01/26 08:38:28;;;;;;;6.50;1.40;;;;;;;6.96;65.81;63663.56;5072393;28;20292;-54
2024/01/26 08:40:53;;;;;;;7.23;1.60;;;;;;;7.70;68.64;63741.22;5072271;28;20189;-56
2024/01/26 08:43:19;;;;;;;5.20;1.70;;;;;;;8.15;62.43;63790.34;5082807;22;20706;-54
2024/01/26 08:45:45;;;;;;;3.80;1.90;;;;;;;8.69;64.69;63848.25;5072344;28;20189;-55
2024/01/26 08:48:19;;;;;;;4.70;1.33;;;;;;;8.91;61.08;63869.75;5071980;28;20288;-55
2024/01/26 08:50:45;;;;;;;2.10;1.23;;;;;;;9.00;58.17;63882.13;5072205;28;20578;-54
2024/01/26 08:53:10;;;;;;;4.70;2.33;;;;;;;8.07;58.01;63781.06;5053934;28;20224;-53
2024/01/26 08:55:36;;;;;;;3.90;1.97;;;;;;;7.95;58.17;63767.97;5072023;28;20609;-55
2024/01/26 08:58:02;;;;;;;3.27;1.63;;;;;;;7.93;57.30;63763.81;5071882;28;20593;-55
2024/01/26 09:00:27;;;;;;;6.10;2.17;;;;;;;7.87;56.66;63756.72;5072245;28;20185;-56
2024/01/26 09:02:53;;;;;;;6.47;2.03;;;;;;;7.13;59.03;63679.03;5072005;28;20232;-55
2024/01/26 09:05:18;;;;;;;5.53;1.93;;;;;;;6.43;60.80;63605.75;5075513;22;20214;-57
2024/01/26 09:07:45;;;;;;;4.00;1.47;;;;;;;6.83;60.60;63649.38;5033926;28;20225;-57
2024/01/26 09:10:10;;;;;;;4.70;1.87;;;;;;;6.83;60.38;63646.34;5051974;28;20535;-54
2024/01/26 09:12:36;;;;;;;3.57;1.23;;;;;;;7.26;58.64;63693.75;5051644;28;20245;-54
2024/01/26 09:15:02;;;;;;;4.50;2.17;;;;;;;6.59;60.32;63620.69;5051708;28;20196;-56
2024/01/26 09:17:27;;;;;;;4.73;1.40;;;;;;;6.75;60.47;63641.19;5033764;28;20609;-55
2024/01/26 09:19:53;;;;;;;3.40;1.60;;;;;;;6.91;59.55;63655.06;5033946;28;20197;-55
2024/01/26 09:22:18;;;;;;;4.03;1.60;;;;;;;7.16;60.02;63682.31;5033440;28;20256;-54
2024/01/26 09:24:44;;;;;;;5.03;2.20;;;;;;;7.78;58.15;63752.47;5051551;28;20220;-54
2024/01/26 09:27:09;;;;;;;5.53;2.10;;;;;;;7.41;57.97;63707.59;5051401;28;20221;-54
2024/01/26 09:29:35;;;;;;;1.23;1.10;;;;;;;7.50;57.13;63717.44;5051671;28;20584;-55
2024/01/26 09:32:01;;;;;;;3.37;1.30;;;;;;;7.59;57.92;63732.25;5017108;28;20217;-56
2024/01/26 09:34:27;;;;;;;2.33;1.50;;;;;;;7.06;58.44;63671.41;5051346;28;20196;-56
2024/01/26 09:36:52;;;;;;;3.00;1.40;;;;;;;6.91;58.81;63655.59;5051846;28;20208;-55
2024/01/26 09:39:18;;;;;;;4.70;2.27;;;;;;;7.13;58.93;63679.56;5051423;28;20267;-57
2024/01/26 09:41:44;;;;;;;6.23;1.90;;;;;;;6.88;59.26;63654.28;5051613;28;20313;-56
2024/01/26 09:44:10;;;;;;;2.83;1.43;;;;;;;7.02;58.48;63667.03;5051116;28;20204;-57
2024/01/26 09:46:36;;;;;;;11.27;2.27;;;;;;;7.13;58.79;63681.56;5033133;28;20264;-57
2024/01/26 09:49:02;;;;;;;6.63;1.87;;;;;;;7.18;59.02;63684.50;5051349;28;20284;-55
2024/01/26 09:51:30;;;;;;;6.23;2.87;;;;;;;7.05;59.16;63670.31;5051449;28;20577;-55
2024/01/26 09:53:59;;;;;;;6.43;1.63;;;;;;;7.02;59.62;63667.03;5051293;28;20217;-55
2024/01/26 09:56:26;;;;;;;4.77;1.97;;;;;;;6.85;59.37;63648.50;5033438;28;20193;-56
2024/01/26 09:58:52;;;;;;;4.47;2.17;;;;;;;6.84;59.55;63647.97;5051119;28;20217;-61
2024/01/26 10:01:21;;;;;;;6.27;2.33;;;;;;;7.22;57.90;63688.84;5051561;28;20254;-55
2024/01/26 10:03:47;;;;;;;4.03;1.90;;;;;;;7.25;58.54;63692.13;5050913;28;20228;-56
2024/01/26 10:06:13;;;;;;;9.10;2.60;;;;;;;7.30;58.61;63697.56;5033311;28;20623;-54
2024/01/26 10:08:41;;;;;;;8.07;2.03;;;;;;;7.22;57.80;63688.84;5050811;28;20235;-56
2024/01/26 10:11:07;;;;;;;4.83;2.17;;;;;;;7.26;58.11;63693.22;5050895;28;20271;-55
2024/01/26 10:13:33;;;;;;;6.07;1.97;;;;;;;7.64;56.96;63737.19;5050817;28;20733;-57
2024/01/26 10:16:09;;;;;;;3.50;1.50;;;;;;;7.42;57.18;63713.72;5050718;28;20189;-55
2024/01/26 10:18:45;;;;;;;6.17;1.83;;;;;;;7.48;56.88;63715.25;5050753;28;20299;-55
2024/01/26 10:21:12;;;;;;;6.03;1.80;;;;;;;8.01;56.73;63775.06;5032739;28;20200;-54
2024/01/26 10:23:38;;;;;;;6.87;2.20;;;;;;;8.34;55.03;63808.59;5040537;23;20420;-55
2024/01/26 10:26:04;;;;;;;4.53;1.63;;;;;;;8.46;54.17;63821.16;5050842;28;20221;-54
2024/01/26 10:28:29;;;;;;;4.37;2.10;;;;;;;7.91;54.75;63764.16;5032585;28;20310;-55
2024/01/26 10:30:55;;;;;;;5.63;2.07;;;;;;;7.69;55.60;63739.59;5050590;28;20205;-54
2024/01/26 10:33:24;;;;;;;3.37;2.00;;;;;;;7.86;55.05;63755.66;5051525;28;20213;-55
2024/01/26 10:35:58;;;;;;;7.20;1.80;;;;;;;7.55;55.50;63722.34;5054367;28;20268;-56
2024/01/26 10:38:25;;;;;;;2.77;1.73;;;;;;;7.47;54.93;63713.63;5054211;28;20215;-54
2024/01/26 10:41:00;;;;;;;3.30;1.60;;;;;;;7.45;55.73;63713.94;5053949;28;20188;-55
2024/01/26 10:43:26;;;;;;;4.10;1.67;;;;;;;7.06;55.89;63671.41;5079482;22;20593;-55
2024/01/26 10:45:53;;;;;;;8.30;2.03;;;;;;;7.50;55.98;63719.94;5055495;28;20677;-56
2024/01/26 10:48:19;;;;;;;5.83;1.83;;;;;;;7.80;61.30;63749.09;5074027;28;20217;-54
2024/01/26 10:50:46;;;;;;;3.87;2.27;;;;;;;7.58;54.24;63731.19;5056015;28;20251;-56
2024/01/26 10:53:14;;;;;;;4.87;2.07;;;;;;;7.82;53.62;63751.81;5073953;28;20205;-55
2024/01/26 10:55:40;;;;;;;2.57;1.40;;;;;;;7.62;53.46;63732.50;5056207;28;20192;-57
2024/01/26 10:58:07;;;;;;;5.03;1.90;;;;;;;7.56;54.70;63729.00;5074121;28;20682;-54
2024/01/26 11:00:34;;;;;;;7.50;2.20;;;;;;;7.46;54.25;63712.53;5073818;28;20258;-54
2024/01/26 11:02:59;;;;;;;5.33;2.10;;;;;;;7.96;53.24;63769.06;5073999;28;20228;-55
2024/01/26 11:05:25;;;;;;;7.73;2.17;;;;;;;7.70;53.40;63743.72;5073677;28;20753;-54
2024/01/26 11:07:52;;;;;;;7.00;1.90;;;;;;;7.60;51.61;63732.81;5073674;28;20220;-55
2024/01/26 11:10:26;;;;;;;4.60;2.37;;;;;;;7.95;51.42;63766.00;5055643;28;20616;-55
2024/01/26 11:13:06;;;;;;;7.03;1.97;;;;;;;7.89;51.14;63761.97;5073746;28;20701;-56
2024/01/26 11:15:36;;;;;;;7.57;1.87;;;;;;;7.65;51.96;63738.28;5073445;28;20180;-55
2024/01/26 11:18:03;;;;;;;5.07;1.90;;;;;;;7.99;51.70;63769.81;5073416;28;20217;-55
2024/01/26 11:20:36;;;;;;;3.97;2.07;;;;;;;7.75;52.81;63744.19;5055413;28;20334;-55
2024/01/26 11:23:13;;;;;;;5.73;1.83;;;;;;;7.98;52.98;63771.25;5073377;28;20221;-54
2024/01/26 11:25:46;;;;;;;2.47;1.80;;;;;;;7.59;53.59;63726.72;5073341;28;20196;-53
2024/01/26 11:28:23;;;;;;;5.63;2.13;;;;;;;8.04;53.44;63777.81;5073131;28;20259;-55
2024/01/26 11:30:57;;;;;;;4.67;1.80;;;;;;;8.21;52.02;63796.91;5073207;28;20578;-53
2024/01/26 11:33:23;;;;;;;4.47;1.53;;;;;;;8.59;50.35;63834.81;5073110;28;20212;-54
2024/01/26 11:35:49;;;;;;;5.63;1.20;;;;;;;8.07;50.80;63781.06;5073436;28;20787;-54
2024/01/26 11:38:15;;;;;;;3.87;1.90;;;;;;;7.88;51.33;63760.88;5073107;28;20686;-54